sensor_id;sensor_type;location;lat;lon;timestamp;pressure;altitude;pressure_sealevel;temperature;humidity
75513;BME280;64090;49.770;18.760;2022-10-31T00:01:35;98020.70;;;12.65;77.06
75513;BME280;64090;49.770;18.760;2022-10-31T00:04:04;98021.30;;;12.64;76.95
75513;BME280;64090;49.770;18.760;2022-10-31T00:06:32;98021.99;;;12.63;77.01
75513;BME280;64090;49.770;18.760;2022-10-31T00:09:02;98026.40;;;12.60;77.32
75513;BME280;64090;49.770;18.760;2022-10-31T00:11:31;98024.60;;;12.56;77.35
75513;BME280;64090;49.770;18.760;2022-10-31T00:13:59;98028.89;;;12.52;77.27
75513;BME280;64090;49.770;18.760;2022-10-31T00:16:29;98030.58;;;12.46;77.09
75513;BME280;64090;49.770;18.760;2022-10-31T00:19:03;98031.09;;;12.41;76.95
75513;BME280;64090;49.770;18.760;2022-10-31T00:21:34;98034.85;;;12.34;76.96
75513;BME280;64090;49.770;18.760;2022-10-31T00:24:02;98035.14;;;12.27;76.92
75513;BME280;64090;49.770;18.760;2022-10-31T00:26:31;98038.39;;;12.23;77.06
75513;BME280;64090;49.770;18.760;2022-10-31T00:28:59;98035.00;;;12.18;77.38
75513;BME280;64090;49.770;18.760;2022-10-31T00:31:28;98040.71;;;12.12;77.58
75513;BME280;64090;49.770;18.760;2022-10-31T00:33:57;98038.02;;;12.07;77.60
75513;BME280;64090;49.770;18.760;2022-10-31T00:36:28;98041.54;;;12.03;77.44
75513;BME280;64090;49.770;18.760;2022-10-31T00:38:58;98042.56;;;11.99;77.30
75513;BME280;64090;49.770;18.760;2022-10-31T00:41:26;98043.39;;;11.96;77.27
75513;BME280;64090;49.770;18.760;2022-10-31T00:43:53;98045.35;;;11.90;77.22
75513;BME280;64090;49.770;18.760;2022-10-31T00:46:21;98050.05;;;11.85;77.43
75513;BME280;64090;49.770;18.760;2022-10-31T00:48:49;98051.10;;;11.80;77.89
75513;BME280;64090;49.770;18.760;2022-10-31T00:51:17;98050.38;;;11.73;78.34
75513;BME280;64090;49.770;18.760;2022-10-31T00:53:44;98059.27;;;11.66;78.33
75513;BME280;64090;49.770;18.760;2022-10-31T00:56:12;98054.09;;;11.60;78.30
75513;BME280;64090;49.770;18.760;2022-10-31T00:58:41;98053.42;;;11.53;78.27
75513;BME280;64090;49.770;18.760;2022-10-31T01:01:08;98053.09;;;11.50;78.42
75513;BME280;64090;49.770;18.760;2022-10-31T01:03:36;98049.25;;;11.47;78.84
75513;BME280;64090;49.770;18.760;2022-10-31T01:06:09;98053.27;;;11.45;79.03
75513;BME280;64090;49.770;18.760;2022-10-31T01:08:38;98052.23;;;11.43;79.21
75513;BME280;64090;49.770;18.760;2022-10-31T01:13:35;98054.55;;;11.36;78.95
75513;BME280;64090;49.770;18.760;2022-10-31T01:16:05;98052.05;;;11.33;78.96
75513;BME280;64090;49.770;18.760;2022-10-31T01:18:34;98047.86;;;11.31;78.92
75513;BME280;64090;49.770;18.760;2022-10-31T01:21:07;98047.33;;;11.28;79.02
75513;BME280;64090;49.770;18.760;2022-10-31T01:23:35;98044.98;;;11.23;79.22
75513;BME280;64090;49.770;18.760;2022-10-31T01:26:12;98044.01;;;11.21;79.71
75513;BME280;64090;49.770;18.760;2022-10-31T01:29:03;98042.41;;;11.19;79.85
75513;BME280;64090;49.770;18.760;2022-10-31T01:31:35;98044.81;;;11.18;79.72
75513;BME280;64090;49.770;18.760;2022-10-31T01:34:03;98042.56;;;11.18;79.57
75513;BME280;64090;49.770;18.760;2022-10-31T01:36:34;98043.92;;;11.20;79.66
75513;BME280;64090;49.770;18.760;2022-10-31T01:39:05;98040.83;;;11.22;79.66
75513;BME280;64090;49.770;18.760;2022-10-31T01:41:35;98034.17;;;11.21;79.78
75513;BME280;64090;49.770;18.760;2022-10-31T01:46:45;98041.20;;;11.13;79.98
75513;BME280;64090;49.770;18.760;2022-10-31T01:49:42;98040.13;;;11.09;80.00
75513;BME280;64090;49.770;18.760;2022-10-31T01:52:39;98042.70;;;11.06;79.82
75513;BME280;64090;49.770;18.760;2022-10-31T01:55:16;98039.83;;;11.01;79.55
75513;BME280;64090;49.770;18.760;2022-10-31T01:57:50;98041.98;;;10.97;79.81
75513;BME280;64090;49.770;18.760;2022-10-31T02:00:20;98042.95;;;10.94;80.14
75513;BME280;64090;49.770;18.760;2022-10-31T02:02:49;98040.93;;;10.90;80.24
75513;BME280;64090;49.770;18.760;2022-10-31T02:05:20;98040.42;;;10.87;80.28
75513;BME280;64090;49.770;18.760;2022-10-31T02:10:24;98042.87;;;10.82;80.00
75513;BME280;64090;49.770;18.760;2022-10-31T02:12:55;98044.20;;;10.77;79.85
75513;BME280;64090;49.770;18.760;2022-10-31T02:15:24;98044.02;;;10.74;79.93
75513;BME280;64090;49.770;18.760;2022-10-31T02:17:53;98044.22;;;10.71;80.25
75513;BME280;64090;49.770;18.760;2022-10-31T02:20:23;98044.98;;;10.68;80.53
75513;BME280;64090;49.770;18.760;2022-10-31T02:26:10;98045.58;;;10.63;80.32
75513;BME280;64090;49.770;18.760;2022-10-31T02:29:05;98043.55;;;10.61;80.14
75513;BME280;64090;49.770;18.760;2022-10-31T02:31:48;98045.91;;;10.57;79.87
75513;BME280;64090;49.770;18.760;2022-10-31T02:40:10;98046.98;;;10.49;80.62
75513;BME280;64090;49.770;18.760;2022-10-31T02:46:01;98052.10;;;10.50;80.88
75513;BME280;64090;49.770;18.760;2022-10-31T02:48:38;98051.95;;;10.51;80.60
75513;BME280;64090;49.770;18.760;2022-10-31T02:51:08;98054.36;;;10.55;80.46
75513;BME280;64090;49.770;18.760;2022-10-31T02:53:37;98056.09;;;10.56;80.32
75513;BME280;64090;49.770;18.760;2022-10-31T02:56:17;98058.90;;;10.58;80.52
75513;BME280;64090;49.770;18.760;2022-10-31T02:59:04;98059.09;;;10.59;80.73
75513;BME280;64090;49.770;18.760;2022-10-31T03:01:54;98055.75;;;10.62;81.02
75513;BME280;64090;49.770;18.760;2022-10-31T03:08:00;98057.91;;;10.67;80.72
75513;BME280;64090;49.770;18.760;2022-10-31T03:15:34;98060.55;;;10.72;80.27
75513;BME280;64090;49.770;18.760;2022-10-31T03:20:40;98061.40;;;10.73;80.72
75513;BME280;64090;49.770;18.760;2022-10-31T03:23:14;98062.70;;;10.74;80.71
75513;BME280;64090;49.770;18.760;2022-10-31T03:25:43;98063.98;;;10.75;80.57
75513;BME280;64090;49.770;18.760;2022-10-31T03:28:14;98062.44;;;10.74;80.52
75513;BME280;64090;49.770;18.760;2022-10-31T03:30:45;98065.55;;;10.74;80.67
75513;BME280;64090;49.770;18.760;2022-10-31T03:33:17;98066.40;;;10.71;80.92
75513;BME280;64090;49.770;18.760;2022-10-31T03:35:50;98067.55;;;10.69;81.09
75513;BME280;64090;49.770;18.760;2022-10-31T03:38:21;98067.83;;;10.66;80.95
75513;BME280;64090;49.770;18.760;2022-10-31T03:40:51;98070.11;;;10.65;80.70
75513;BME280;64090;49.770;18.760;2022-10-31T03:43:26;98068.80;;;10.62;80.52
75513;BME280;64090;49.770;18.760;2022-10-31T03:45:56;98067.10;;;10.59;80.31
75513;BME280;64090;49.770;18.760;2022-10-31T03:48:24;98070.04;;;10.58;80.36
75513;BME280;64090;49.770;18.760;2022-10-31T03:53:34;98072.20;;;10.55;80.72
75513;BME280;64090;49.770;18.760;2022-10-31T03:56:16;98077.48;;;10.53;80.59
75513;BME280;64090;49.770;18.760;2022-10-31T03:59:18;98077.09;;;10.52;80.39
75513;BME280;64090;49.770;18.760;2022-10-31T04:01:51;98075.48;;;10.49;80.17
75513;BME280;64090;49.770;18.760;2022-10-31T04:04:20;98077.18;;;10.47;80.02
75513;BME280;64090;49.770;18.760;2022-10-31T04:06:48;98076.19;;;10.45;80.00
75513;BME280;64090;49.770;18.760;2022-10-31T04:09:19;98081.77;;;10.41;80.30
75513;BME280;64090;49.770;18.760;2022-10-31T04:11:52;98080.48;;;10.38;80.61
75513;BME280;64090;49.770;18.760;2022-10-31T04:14:23;98082.27;;;10.36;80.62
75513;BME280;64090;49.770;18.760;2022-10-31T04:16:53;98085.70;;;10.34;80.38
75513;BME280;64090;49.770;18.760;2022-10-31T04:19:21;98083.70;;;10.29;80.15
75513;BME280;64090;49.770;18.760;2022-10-31T04:21:49;98085.29;;;10.22;80.09
75513;BME280;64090;49.770;18.760;2022-10-31T04:24:16;98086.20;;;10.16;80.19
75513;BME280;64090;49.770;18.760;2022-10-31T04:26:44;98086.61;;;10.10;80.55
75513;BME280;64090;49.770;18.760;2022-10-31T04:29:12;98084.40;;;10.04;80.80
75513;BME280;64090;49.770;18.760;2022-10-31T04:31:39;98083.49;;;9.99;81.35
75513;BME280;64090;49.770;18.760;2022-10-31T04:34:07;98081.39;;;9.96;81.27
75513;BME280;64090;49.770;18.760;2022-10-31T04:36:35;98083.79;;;9.94;81.19
75513;BME280;64090;49.770;18.760;2022-10-31T04:39:03;98075.81;;;9.93;81.63
75513;BME280;64090;49.770;18.760;2022-10-31T04:41:31;98077.50;;;9.95;81.52
75513;BME280;64090;49.770;18.760;2022-10-31T04:43:59;98077.88;;;9.96;81.99
75513;BME280;64090;49.770;18.760;2022-10-31T04:46:27;98080.46;;;9.98;82.34
75513;BME280;64090;49.770;18.760;2022-10-31T04:48:54;98085.20;;;9.98;82.27
75513;BME280;64090;49.770;18.760;2022-10-31T04:51:22;98088.02;;;9.95;82.21
75513;BME280;64090;49.770;18.760;2022-10-31T04:53:50;98094.60;;;9.94;81.95
75513;BME280;64090;49.770;18.760;2022-10-31T04:56:17;98096.36;;;9.94;82.42
75513;BME280;64090;49.770;18.760;2022-10-31T04:58:45;98093.90;;;9.92;82.82
75513;BME280;64090;49.770;18.760;2022-10-31T05:01:13;98098.88;;;9.90;83.00
75513;BME280;64090;49.770;18.760;2022-10-31T05:03:41;98099.70;;;9.86;82.57
75513;BME280;64090;49.770;18.760;2022-10-31T05:06:09;98095.14;;;9.83;82.56
75513;BME280;64090;49.770;18.760;2022-10-31T05:08:37;98097.73;;;9.82;82.83
75513;BME280;64090;49.770;18.760;2022-10-31T05:11:04;98099.33;;;9.80;82.99
75513;BME280;64090;49.770;18.760;2022-10-31T05:13:32;98099.91;;;9.79;83.30
75513;BME280;64090;49.770;18.760;2022-10-31T05:16:00;98104.75;;;9.75;83.39
75513;BME280;64090;49.770;18.760;2022-10-31T05:18:28;98104.41;;;9.72;83.30
75513;BME280;64090;49.770;18.760;2022-10-31T05:20:56;98109.60;;;9.69;83.07
75513;BME280;64090;49.770;18.760;2022-10-31T05:23:23;98118.23;;;9.66;83.32
75513;BME280;64090;49.770;18.760;2022-10-31T05:25:51;98116.13;;;9.65;83.38
75513;BME280;64090;49.770;18.760;2022-10-31T05:28:19;98116.91;;;9.61;83.64
75513;BME280;64090;49.770;18.760;2022-10-31T05:30:47;98123.77;;;9.60;83.96
75513;BME280;64090;49.770;18.760;2022-10-31T05:33:15;98119.14;;;9.59;83.99
75513;BME280;64090;49.770;18.760;2022-10-31T05:35:42;98122.16;;;9.54;84.16
75513;BME280;64090;49.770;18.760;2022-10-31T05:38:10;98122.40;;;9.51;84.11
75513;BME280;64090;49.770;18.760;2022-10-31T05:40:38;98127.78;;;9.50;83.65
75513;BME280;64090;49.770;18.760;2022-10-31T05:43:05;98126.30;;;9.49;83.92
75513;BME280;64090;49.770;18.760;2022-10-31T05:45:33;98127.31;;;9.51;84.11
75513;BME280;64090;49.770;18.760;2022-10-31T05:48:02;98126.95;;;9.53;84.14
75513;BME280;64090;49.770;18.760;2022-10-31T05:50:31;98134.23;;;9.52;83.97
75513;BME280;64090;49.770;18.760;2022-10-31T05:53:01;98132.55;;;9.52;83.57
75513;BME280;64090;49.770;18.760;2022-10-31T05:55:31;98133.73;;;9.55;83.46
75513;BME280;64090;49.770;18.760;2022-10-31T05:57:59;98141.42;;;9.58;83.58
75513;BME280;64090;49.770;18.760;2022-10-31T06:00:27;98139.80;;;9.62;83.82
75513;BME280;64090;49.770;18.760;2022-10-31T06:03:03;98138.40;;;9.66;83.95
75513;BME280;64090;49.770;18.760;2022-10-31T06:05:31;98144.59;;;9.69;83.58
75513;BME280;64090;49.770;18.760;2022-10-31T06:07:59;98146.14;;;9.72;83.31
75513;BME280;64090;49.770;18.760;2022-10-31T06:10:28;98144.87;;;9.76;83.32
75513;BME280;64090;49.770;18.760;2022-10-31T06:12:56;98149.22;;;9.82;83.55
75513;BME280;64090;49.770;18.760;2022-10-31T06:15:24;98152.69;;;9.88;83.60
75513;BME280;64090;49.770;18.760;2022-10-31T06:17:59;98152.36;;;9.95;83.02
75513;BME280;64090;49.770;18.760;2022-10-31T06:20:28;98153.94;;;10.03;82.63
75513;BME280;64090;49.770;18.760;2022-10-31T06:22:56;98148.61;;;10.11;82.74
75513;BME280;64090;49.770;18.760;2022-10-31T06:25:25;98154.86;;;10.21;82.77
75513;BME280;64090;49.770;18.760;2022-10-31T06:27:53;98154.02;;;10.29;82.53
75513;BME280;64090;49.770;18.760;2022-10-31T06:30:21;98155.00;;;10.36;82.05
75513;BME280;64090;49.770;18.760;2022-10-31T06:32:49;98153.84;;;10.44;81.64
75513;BME280;64090;49.770;18.760;2022-10-31T06:35:17;98160.32;;;10.53;81.73
75513;BME280;64090;49.770;18.760;2022-10-31T06:37:55;98159.17;;;10.64;81.77
75513;BME280;64090;49.770;18.760;2022-10-31T06:40:22;98158.13;;;10.75;81.70
75513;BME280;64090;49.770;18.760;2022-10-31T06:43:00;98156.77;;;10.82;81.30
75513;BME280;64090;49.770;18.760;2022-10-31T06:45:28;98156.59;;;10.94;80.78
75513;BME280;64090;49.770;18.760;2022-10-31T06:47:56;98160.01;;;11.05;80.46
75513;BME280;64090;49.770;18.760;2022-10-31T06:50:44;98161.95;;;11.18;80.37
75513;BME280;64090;49.770;18.760;2022-10-31T06:53:12;98165.99;;;11.27;80.09
75513;BME280;64090;49.770;18.760;2022-10-31T06:55:42;98167.08;;;11.34;79.11
75513;BME280;64090;49.770;18.760;2022-10-31T06:58:10;98171.95;;;11.41;79.32
75513;BME280;64090;49.770;18.760;2022-10-31T07:00:38;98173.34;;;11.55;79.43
75513;BME280;64090;49.770;18.760;2022-10-31T07:03:10;98177.02;;;11.66;78.62
75513;BME280;64090;49.770;18.760;2022-10-31T07:05:39;98174.66;;;11.78;78.87
75513;BME280;64090;49.770;18.760;2022-10-31T07:08:11;98174.04;;;11.93;79.19
75513;BME280;64090;49.770;18.760;2022-10-31T07:10:40;98172.56;;;12.10;78.84
75513;BME280;64090;49.770;18.760;2022-10-31T07:13:13;98168.17;;;12.28;78.39
75513;BME280;64090;49.770;18.760;2022-10-31T07:15:43;98172.94;;;12.45;77.79
75513;BME280;64090;49.770;18.760;2022-10-31T07:18:11;98165.13;;;12.62;77.62
75513;BME280;64090;49.770;18.760;2022-10-31T07:20:40;98167.06;;;12.77;77.28
75513;BME280;64090;49.770;18.760;2022-10-31T07:23:09;98171.17;;;12.94;77.11
75513;BME280;64090;49.770;18.760;2022-10-31T07:25:39;98176.44;;;13.07;77.10
75513;BME280;64090;49.770;18.760;2022-10-31T07:28:07;98176.55;;;13.17;76.67
75513;BME280;64090;49.770;18.760;2022-10-31T07:30:36;98181.31;;;13.25;75.86
75513;BME280;64090;49.770;18.760;2022-10-31T07:33:05;98185.83;;;13.34;74.60
75513;BME280;64090;49.770;18.760;2022-10-31T07:35:33;98184.55;;;13.34;75.17
75513;BME280;64090;49.770;18.760;2022-10-31T07:38:10;98185.10;;;13.38;75.25
75513;BME280;64090;49.770;18.760;2022-10-31T07:40:39;98187.45;;;13.46;75.22
75513;BME280;64090;49.770;18.760;2022-10-31T07:43:07;98187.23;;;13.56;74.93
75513;BME280;64090;49.770;18.760;2022-10-31T07:45:41;98184.70;;;13.62;75.06
75513;BME280;64090;49.770;18.760;2022-10-31T07:48:09;98188.08;;;13.70;74.87
75513;BME280;64090;49.770;18.760;2022-10-31T07:50:36;98191.20;;;13.70;74.76
75513;BME280;64090;49.770;18.760;2022-10-31T07:53:07;98187.20;;;13.79;74.25
75513;BME280;64090;49.770;18.760;2022-10-31T07:55:35;98189.70;;;13.87;73.70
75513;BME280;64090;49.770;18.760;2022-10-31T07:58:12;98187.73;;;13.87;73.12
75513;BME280;64090;49.770;18.760;2022-10-31T08:00:41;98184.21;;;13.84;72.97
75513;BME280;64090;49.770;18.760;2022-10-31T08:03:11;98188.54;;;13.87;73.38
75513;BME280;64090;49.770;18.760;2022-10-31T08:05:39;98184.23;;;13.93;73.86
75513;BME280;64090;49.770;18.760;2022-10-31T08:08:08;98179.76;;;13.98;72.22
75513;BME280;64090;49.770;18.760;2022-10-31T08:10:36;98182.62;;;14.01;72.34
75513;BME280;64090;49.770;18.760;2022-10-31T08:13:07;98185.56;;;14.04;71.98
75513;BME280;64090;49.770;18.760;2022-10-31T08:15:35;98187.86;;;14.03;71.76
75513;BME280;64090;49.770;18.760;2022-10-31T08:18:11;98188.02;;;14.12;72.24
75513;BME280;64090;49.770;18.760;2022-10-31T08:20:39;98184.27;;;14.23;71.65
75513;BME280;64090;49.770;18.760;2022-10-31T08:23:09;98190.13;;;14.37;72.01
75513;BME280;64090;49.770;18.760;2022-10-31T08:25:38;98188.14;;;14.43;71.77
75513;BME280;64090;49.770;18.760;2022-10-31T08:28:06;98188.98;;;14.46;72.35
75513;BME280;64090;49.770;18.760;2022-10-31T08:30:36;98183.71;;;14.53;72.69
75513;BME280;64090;49.770;18.760;2022-10-31T08:33:08;98188.98;;;14.63;73.22
75513;BME280;64090;49.770;18.760;2022-10-31T08:35:37;98185.97;;;14.74;73.09
75513;BME280;64090;49.770;18.760;2022-10-31T08:38:05;98183.30;;;14.81;72.89
75513;BME280;64090;49.770;18.760;2022-10-31T08:40:33;98186.30;;;14.94;72.25
75513;BME280;64090;49.770;18.760;2022-10-31T08:43:04;98189.16;;;15.00;71.89
75513;BME280;64090;49.770;18.760;2022-10-31T08:45:33;98192.30;;;15.07;72.37
75513;BME280;64090;49.770;18.760;2022-10-31T08:48:04;98192.73;;;15.23;72.21
75513;BME280;64090;49.770;18.760;2022-10-31T08:50:33;98192.57;;;15.34;72.25
75513;BME280;64090;49.770;18.760;2022-10-31T08:53:06;98194.02;;;15.50;72.28
75513;BME280;64090;49.770;18.760;2022-10-31T08:55:35;98198.83;;;15.59;71.62
75513;BME280;64090;49.770;18.760;2022-10-31T08:58:05;98193.16;;;15.71;71.13
75513;BME280;64090;49.770;18.760;2022-10-31T09:00:34;98197.55;;;15.80;70.36
75513;BME280;64090;49.770;18.760;2022-10-31T09:03:04;98197.86;;;15.89;70.06
75513;BME280;64090;49.770;18.760;2022-10-31T09:05:33;98197.09;;;15.97;70.07
75513;BME280;64090;49.770;18.760;2022-10-31T09:08:03;98200.39;;;16.05;69.94
75513;BME280;64090;49.770;18.760;2022-10-31T09:10:32;98199.68;;;16.15;68.99
75513;BME280;64090;49.770;18.760;2022-10-31T09:13:08;98202.06;;;16.20;69.15
75513;BME280;64090;49.770;18.760;2022-10-31T09:15:38;98200.72;;;16.31;69.09
75513;BME280;64090;49.770;18.760;2022-10-31T09:18:07;98201.59;;;16.37;68.86
75513;BME280;64090;49.770;18.760;2022-10-31T09:20:36;98202.21;;;16.45;68.67
75513;BME280;64090;49.770;18.760;2022-10-31T09:23:21;98199.98;;;16.53;68.30
75513;BME280;64090;49.770;18.760;2022-10-31T09:25:50;98196.29;;;16.59;68.33
75513;BME280;64090;49.770;18.760;2022-10-31T09:28:23;98198.59;;;16.62;68.19
75513;BME280;64090;49.770;18.760;2022-10-31T09:30:51;98199.11;;;16.73;68.66
75513;BME280;64090;49.770;18.760;2022-10-31T09:33:20;98200.01;;;16.83;68.46
75513;BME280;64090;49.770;18.760;2022-10-31T09:35:48;98194.83;;;16.99;68.89
75513;BME280;64090;49.770;18.760;2022-10-31T09:38:18;98195.86;;;17.17;67.75
75513;BME280;64090;49.770;18.760;2022-10-31T09:40:52;98197.33;;;17.28;66.51
75513;BME280;64090;49.770;18.760;2022-10-31T09:46:54;98194.69;;;17.39;66.16
75513;BME280;64090;49.770;18.760;2022-10-31T09:49:59;98196.66;;;17.47;65.86
75513;BME280;64090;49.770;18.760;2022-10-31T09:52:36;98192.52;;;17.61;65.44
75513;BME280;64090;49.770;18.760;2022-10-31T09:55:17;98183.31;;;17.70;64.40
75513;BME280;64090;49.770;18.760;2022-10-31T09:57:46;98184.42;;;17.82;63.01
75513;BME280;64090;49.770;18.760;2022-10-31T10:00:18;98185.80;;;17.92;63.01
75513;BME280;64090;49.770;18.760;2022-10-31T10:02:55;98184.77;;;18.03;62.86
75513;BME280;64090;49.770;18.760;2022-10-31T10:05:29;98184.98;;;18.12;62.15
75513;BME280;64090;49.770;18.760;2022-10-31T10:11:01;98190.38;;;18.40;63.69
75513;BME280;64090;49.770;18.760;2022-10-31T10:13:45;98185.64;;;18.53;62.41
75513;BME280;64090;49.770;18.760;2022-10-31T10:30:54;98180.99;;;18.98;61.69
75513;BME280;64090;49.770;18.760;2022-10-31T10:33:33;98178.88;;;19.01;61.21
75513;BME280;64090;49.770;18.760;2022-10-31T10:36:06;98178.14;;;19.05;60.95
75513;BME280;64090;49.770;18.760;2022-10-31T10:38:39;98178.55;;;19.09;60.64
75513;BME280;64090;49.770;18.760;2022-10-31T10:41:21;98176.70;;;19.11;60.26
75513;BME280;64090;49.770;18.760;2022-10-31T10:43:53;98177.05;;;19.13;60.34
75513;BME280;64090;49.770;18.760;2022-10-31T10:46:51;98178.40;;;19.17;60.05
75513;BME280;64090;49.770;18.760;2022-10-31T10:49:50;98176.06;;;19.20;59.84
75513;BME280;64090;49.770;18.760;2022-10-31T10:53:00;98174.99;;;19.21;59.98
75513;BME280;64090;49.770;18.760;2022-10-31T10:55:41;98172.18;;;19.20;60.09
75513;BME280;64090;49.770;18.760;2022-10-31T10:58:14;98171.65;;;19.25;59.16
75513;BME280;64090;49.770;18.760;2022-10-31T11:00:46;98166.27;;;19.25;58.48
75513;BME280;64090;49.770;18.760;2022-10-31T11:03:17;98168.11;;;19.25;58.30
75513;BME280;64090;49.770;18.760;2022-10-31T11:11:02;98164.52;;;19.28;59.07
75513;BME280;64090;49.770;18.760;2022-10-31T11:13:33;98164.76;;;19.35;58.32
75513;BME280;64090;49.770;18.760;2022-10-31T11:16:07;98161.48;;;19.36;58.63
75513;BME280;64090;49.770;18.760;2022-10-31T11:18:42;98157.49;;;19.40;58.95
75513;BME280;64090;49.770;18.760;2022-10-31T11:21:26;98159.04;;;19.47;58.62
75513;BME280;64090;49.770;18.760;2022-10-31T11:26:30;98154.80;;;19.50;58.53
75513;BME280;64090;49.770;18.760;2022-10-31T11:28:59;98158.00;;;19.56;58.34
75513;BME280;64090;49.770;18.760;2022-10-31T11:31:27;98162.07;;;19.59;58.15
75513;BME280;64090;49.770;18.760;2022-10-31T11:34:12;98157.34;;;19.61;58.25
75513;BME280;64090;49.770;18.760;2022-10-31T11:36:43;98151.67;;;19.65;58.14
75513;BME280;64090;49.770;18.760;2022-10-31T11:39:18;98154.39;;;19.68;57.86
75513;BME280;64090;49.770;18.760;2022-10-31T11:41:49;98151.43;;;19.70;57.85
75513;BME280;64090;49.770;18.760;2022-10-31T11:44:25;98153.15;;;19.75;57.58
75513;BME280;64090;49.770;18.760;2022-10-31T11:47:03;98155.02;;;19.77;57.33
75513;BME280;64090;49.770;18.760;2022-10-31T11:49:39;98152.73;;;19.76;57.50
75513;BME280;64090;49.770;18.760;2022-10-31T11:52:17;98150.88;;;19.79;57.00
75513;BME280;64090;49.770;18.760;2022-10-31T11:54:54;98148.20;;;19.82;55.18
75513;BME280;64090;49.770;18.760;2022-10-31T11:57:28;98145.13;;;19.81;55.55
75513;BME280;64090;49.770;18.760;2022-10-31T12:00:00;98142.64;;;19.80;55.54
75513;BME280;64090;49.770;18.760;2022-10-31T12:02:30;98143.64;;;19.79;55.64
75513;BME280;64090;49.770;18.760;2022-10-31T12:05:21;98139.48;;;19.74;55.15
75513;BME280;64090;49.770;18.760;2022-10-31T12:07:51;98140.44;;;19.71;54.88
75513;BME280;64090;49.770;18.760;2022-10-31T12:10:21;98140.61;;;19.68;54.92
75513;BME280;64090;49.770;18.760;2022-10-31T12:16:18;98134.75;;;19.65;55.45
75513;BME280;64090;49.770;18.760;2022-10-31T12:18:58;98132.16;;;19.62;55.98
75513;BME280;64090;49.770;18.760;2022-10-31T12:21:59;98128.97;;;19.65;56.30
75513;BME280;64090;49.770;18.760;2022-10-31T12:35:40;98120.98;;;19.79;56.75
75513;BME280;64090;49.770;18.760;2022-10-31T12:38:23;98120.67;;;19.82;56.89
75513;BME280;64090;49.770;18.760;2022-10-31T12:44:04;98116.37;;;19.83;55.50
75513;BME280;64090;49.770;18.760;2022-10-31T12:49:52;98109.88;;;19.81;55.96
75513;BME280;64090;49.770;18.760;2022-10-31T12:53:03;98109.52;;;19.82;56.60
75513;BME280;64090;49.770;18.760;2022-10-31T12:55:40;98104.31;;;19.84;55.95
75513;BME280;64090;49.770;18.760;2022-10-31T12:58:26;98105.41;;;19.87;55.92
75513;BME280;64090;49.770;18.760;2022-10-31T13:01:03;98103.55;;;19.84;56.42
75513;BME280;64090;49.770;18.760;2022-10-31T13:04:22;98101.98;;;19.85;56.80
75513;BME280;64090;49.770;18.760;2022-10-31T13:07:03;98100.39;;;19.88;56.80
75513;BME280;64090;49.770;18.760;2022-10-31T13:12:20;98101.42;;;19.94;57.13
75513;BME280;64090;49.770;18.760;2022-10-31T13:14:52;98097.89;;;19.91;57.01
75513;BME280;64090;49.770;18.760;2022-10-31T13:17:27;98094.65;;;19.93;56.83
75513;BME280;64090;49.770;18.760;2022-10-31T13:20:20;98095.36;;;19.93;56.68
75513;BME280;64090;49.770;18.760;2022-10-31T13:22:53;98090.58;;;19.88;56.62
75513;BME280;64090;49.770;18.760;2022-10-31T13:25:26;98091.90;;;19.85;57.05
75513;BME280;64090;49.770;18.760;2022-10-31T13:28:19;98089.46;;;19.86;57.44
75513;BME280;64090;49.770;18.760;2022-10-31T13:30:51;98088.16;;;19.85;57.43
75513;BME280;64090;49.770;18.760;2022-10-31T13:36:15;98086.09;;;19.76;57.63
75513;BME280;64090;49.770;18.760;2022-10-31T13:44:16;98085.55;;;19.66;57.68
75513;BME280;64090;49.770;18.760;2022-10-31T13:46:45;98087.82;;;19.62;57.38
75513;BME280;64090;49.770;18.760;2022-10-31T13:54:46;98086.60;;;19.47;58.19
75513;BME280;64090;49.770;18.760;2022-10-31T13:57:41;98089.66;;;19.42;58.20
75513;BME280;64090;49.770;18.760;2022-10-31T14:02:53;98086.94;;;19.30;58.05
75513;BME280;64090;49.770;18.760;2022-10-31T14:07:53;98088.02;;;19.20;58.85
75513;BME280;64090;49.770;18.760;2022-10-31T14:10:31;98085.48;;;19.15;58.93
75513;BME280;64090;49.770;18.760;2022-10-31T14:13:07;98082.32;;;19.07;58.91
75513;BME280;64090;49.770;18.760;2022-10-31T14:15:43;98084.44;;;18.98;59.23
75513;BME280;64090;49.770;18.760;2022-10-31T14:20:58;98084.30;;;18.84;59.51
75513;BME280;64090;49.770;18.760;2022-10-31T14:23:37;98079.02;;;18.76;59.81
75513;BME280;64090;49.770;18.760;2022-10-31T14:29:41;98080.73;;;18.61;60.30
75513;BME280;64090;49.770;18.760;2022-10-31T14:31:45;98078.02;;;18.55;60.49
75513;BME280;64090;49.770;18.760;2022-10-31T14:34:34;98078.37;;;18.49;60.85
75513;BME280;64090;49.770;18.760;2022-10-31T14:40:17;98071.36;;;18.34;61.24
75513;BME280;64090;49.770;18.760;2022-10-31T14:43:17;98074.39;;;18.24;61.59
75513;BME280;64090;49.770;18.760;2022-10-31T14:51:22;98069.84;;;17.94;62.39
75513;BME280;64090;49.770;18.760;2022-10-31T14:53:55;98065.02;;;17.86;62.79
75513;BME280;64090;49.770;18.760;2022-10-31T14:56:30;98065.90;;;17.78;63.44
75513;BME280;64090;49.770;18.760;2022-10-31T14:59:01;98066.07;;;17.70;64.14
75513;BME280;64090;49.770;18.760;2022-10-31T15:01:32;98068.13;;;17.61;64.06
75513;BME280;64090;49.770;18.760;2022-10-31T15:04:20;98068.77;;;17.52;64.21
75513;BME280;64090;49.770;18.760;2022-10-31T15:07:02;98066.10;;;17.41;64.24
75513;BME280;64090;49.770;18.760;2022-10-31T15:09:34;98063.31;;;17.29;64.31
75513;BME280;64090;49.770;18.760;2022-10-31T15:14:49;98061.38;;;17.04;64.62
75513;BME280;64090;49.770;18.760;2022-10-31T15:17:18;98062.88;;;16.93;64.81
75513;BME280;64090;49.770;18.760;2022-10-31T15:19:47;98064.48;;;16.85;65.58
75513;BME280;64090;49.770;18.760;2022-10-31T15:22:17;98063.95;;;16.78;66.23